createdAt,value
2017-11-15T00:01:22.471Z,21.10
2017-11-15T00:03:50.054Z,20.40
2017-11-15T00:06:17.625Z,21.33
2017-11-15T00:08:45.238Z,16.70
2017-11-15T00:11:12.806Z,18.90
2017-11-15T00:13:40.374Z,22.20
2017-11-15T00:16:08.135Z,19.83
2017-11-15T00:18:35.702Z,22.27
2017-11-15T00:21:03.294Z,24.63
2017-11-15T00:23:30.871Z,19.50
2017-11-15T00:25:59.226Z,23.23
2017-11-15T00:28:26.835Z,23.27
2017-11-15T00:30:54.398Z,22.00
2017-11-15T00:33:21.981Z,22.40
2017-11-15T00:35:49.807Z,22.90
2017-11-15T00:38:18.169Z,23.27
2017-11-15T00:40:45.737Z,24.80
2017-11-15T00:43:13.304Z,20.03
2017-11-15T00:45:41.671Z,19.93
2017-11-15T00:48:09.240Z,18.20
2017-11-15T00:50:37.823Z,24.00
2017-11-15T00:53:06.158Z,22.23
2017-11-15T00:55:33.759Z,22.07
2017-11-15T00:58:01.320Z,21.80
2017-11-15T01:00:29.166Z,20.83
2017-11-15T01:02:56.719Z,19.93
2017-11-15T01:05:24.328Z,22.70
2017-11-15T01:07:52.657Z,19.60
2017-11-15T01:10:20.247Z,22.23
2017-11-15T01:12:47.823Z,20.40
2017-11-15T01:15:16.172Z,23.03
2017-11-15T01:17:43.799Z,23.80
2017-11-15T01:20:11.366Z,22.77
2017-11-15T01:22:38.962Z,23.10
2017-11-15T01:25:06.519Z,21.27
2017-11-15T01:27:34.124Z,23.93
2017-11-15T01:30:02.465Z,24.97
2017-11-15T01:32:30.024Z,26.53
2017-11-15T01:34:57.632Z,25.20
2017-11-15T01:37:25.198Z,28.10
2017-11-15T01:39:52.795Z,28.27
2017-11-15T01:42:20.677Z,28.37
2017-11-15T01:44:48.256Z,30.63
2017-11-15T01:47:16.767Z,23.30
2017-11-15T01:49:44.351Z,23.30
2017-11-15T01:52:12.031Z,23.47
2017-11-15T01:54:44.572Z,24.63
2017-11-15T01:57:12.152Z,26.90
2017-11-15T01:59:40.701Z,25.10
2017-11-15T02:02:08.265Z,27.50
2017-11-15T02:04:35.878Z,23.93
2017-11-15T02:07:03.436Z,25.37
2017-11-15T02:09:31.035Z,23.97
2017-11-15T02:11:58.630Z,25.20
2017-11-15T02:14:26.185Z,21.30
2017-11-15T02:16:53.872Z,25.20
2017-11-15T02:19:21.440Z,25.83
2017-11-15T02:21:49.001Z,25.23
2017-11-15T02:24:16.672Z,26.90
2017-11-15T02:26:44.245Z,19.63
2017-11-15T02:29:11.774Z,22.13
2017-11-15T02:31:39.407Z,24.67
2017-11-15T02:34:06.976Z,21.77
2017-11-15T02:36:34.542Z,23.33
2017-11-15T02:39:02.181Z,20.00
2017-11-15T02:41:30.491Z,20.77
2017-11-15T02:43:58.329Z,25.63
2017-11-15T02:46:25.893Z,23.80
2017-11-15T02:48:53.460Z,20.47
2017-11-15T02:51:25.156Z,19.80
2017-11-15T02:53:52.760Z,23.07
2017-11-15T02:56:20.338Z,21.30
2017-11-15T02:58:47.924Z,22.37
2017-11-15T03:01:15.516Z,22.40
2017-11-15T03:03:43.091Z,24.93
2017-11-15T03:06:11.564Z,22.10
2017-11-15T03:08:39.388Z,25.23
2017-11-15T03:11:06.942Z,23.93
2017-11-15T03:13:35.333Z,23.90
2017-11-15T03:16:02.888Z,22.20
2017-11-15T03:18:31.268Z,26.40
2017-11-15T03:20:59.008Z,28.27
2017-11-15T03:23:26.584Z,28.97
2017-11-15T03:25:54.167Z,26.77
2017-11-15T03:28:21.787Z,31.30
2017-11-15T03:30:49.370Z,28.27
2017-11-15T03:33:16.932Z,32.10
2017-11-15T03:35:44.520Z,26.40
2017-11-15T03:38:12.098Z,33.33
2017-11-15T03:40:40.225Z,34.03
2017-11-15T03:43:07.839Z,30.67
2017-11-15T03:45:35.440Z,35.47
2017-11-15T03:48:03.009Z,27.73
2017-11-15T03:50:30.779Z,36.80
2017-11-15T03:52:58.361Z,31.80
2017-11-15T03:55:25.921Z,29.00
2017-11-15T03:57:53.479Z,27.50
2017-11-15T04:00:21.125Z,29.80
2017-11-15T04:02:48.730Z,31.50
2017-11-15T04:05:16.669Z,29.03
2017-11-15T04:07:44.290Z,26.80
2017-11-15T04:10:11.861Z,31.93
2017-11-15T04:12:39.772Z,28.03
2017-11-15T04:15:07.342Z,29.90
2017-11-15T04:17:34.906Z,25.40
2017-11-15T04:20:02.525Z,28.17
2017-11-15T04:22:30.103Z,29.77
2017-11-15T04:24:57.814Z,26.87
2017-11-15T04:27:26.146Z,28.83
2017-11-15T04:29:53.791Z,28.27
2017-11-15T04:32:21.372Z,29.17
2017-11-15T04:34:48.935Z,27.87
2017-11-15T04:37:16.534Z,25.87
2017-11-15T04:39:44.098Z,33.50
2017-11-15T04:42:12.453Z,23.13
2017-11-15T04:44:40.016Z,27.90
2017-11-15T04:47:07.583Z,29.57
2017-11-15T04:49:35.175Z,29.03
2017-11-15T04:52:03.509Z,25.73
2017-11-15T04:54:31.083Z,27.27
2017-11-15T04:56:58.696Z,23.73
2017-11-15T04:59:26.286Z,25.57
2017-11-15T05:01:53.831Z,27.60
2017-11-15T05:04:21.424Z,25.60
2017-11-15T05:06:48.980Z,25.10
2017-11-15T05:09:16.664Z,29.27
2017-11-15T05:11:44.988Z,28.77
2017-11-15T05:14:12.567Z,27.03
2017-11-15T05:16:40.147Z,27.13
2017-11-15T05:19:07.834Z,26.27
2017-11-15T05:21:36.164Z,27.60
2017-11-15T05:24:03.716Z,26.70
2017-11-15T05:26:31.299Z,27.70
2017-11-15T05:28:58.878Z,25.00
2017-11-15T05:31:26.435Z,26.57
2017-11-15T05:33:54.037Z,27.43
2017-11-15T05:36:21.639Z,26.40
2017-11-15T05:38:49.226Z,30.00
2017-11-15T05:41:17.571Z,31.40
2017-11-15T05:43:45.131Z,31.20
2017-11-15T05:46:12.711Z,25.13
2017-11-15T05:48:40.271Z,27.53
2017-11-15T05:51:07.849Z,24.77
2017-11-15T05:53:36.216Z,26.97
2017-11-15T05:56:03.788Z,23.83
2017-11-15T05:58:31.384Z,25.00
2017-11-15T06:00:58.938Z,26.27
2017-11-15T06:03:26.566Z,24.50
2017-11-15T06:05:54.121Z,25.70
2017-11-15T06:08:21.712Z,27.97
2017-11-15T06:10:54.976Z,27.60
2017-11-15T06:13:22.724Z,23.77
2017-11-15T06:15:50.232Z,26.13
2017-11-15T06:18:17.776Z,22.87
2017-11-15T06:20:45.336Z,26.93
2017-11-15T06:23:13.738Z,29.37
2017-11-15T06:25:41.342Z,24.87
2017-11-15T06:28:09.005Z,24.13
2017-11-15T06:30:36.606Z,24.67
2017-11-15T06:33:04.869Z,19.70
2017-11-15T06:35:32.416Z,23.77
2017-11-15T06:38:00.055Z,23.83
2017-11-15T06:40:27.611Z,26.17
2017-11-15T06:42:55.579Z,23.50
2017-11-15T06:45:23.145Z,24.73
2017-11-15T06:47:50.798Z,30.13
2017-11-15T06:50:18.414Z,29.30
2017-11-15T06:52:46.815Z,29.33
2017-11-15T06:55:15.160Z,28.00
2017-11-15T06:57:42.713Z,25.00
2017-11-15T07:00:10.315Z,27.30
2017-11-15T07:02:37.921Z,27.87
2017-11-15T07:05:05.484Z,34.50
2017-11-15T07:07:33.072Z,25.70
2017-11-15T07:10:00.648Z,36.20
2017-11-15T07:12:29.007Z,26.97
2017-11-15T07:14:56.579Z,27.27
2017-11-15T07:17:24.937Z,24.70
2017-11-15T07:19:52.504Z,27.83
2017-11-15T07:22:20.089Z,26.83
2017-11-15T07:24:48.437Z,25.03
2017-11-15T07:27:16.012Z,29.43
2017-11-15T07:29:43.601Z,25.40
2017-11-15T07:32:11.171Z,29.60
2017-11-15T07:34:38.747Z,30.53
2017-11-15T07:37:06.302Z,26.07
2017-11-15T07:39:38.723Z,23.67
2017-11-15T07:42:13.531Z,26.37
2017-11-15T07:44:41.134Z,28.60
2017-11-15T07:47:09.529Z,25.53
2017-11-15T07:49:37.107Z,24.83
2017-11-15T07:52:04.741Z,26.93
2017-11-15T07:54:33.096Z,23.70
2017-11-15T07:57:00.696Z,24.50
2017-11-15T07:59:28.285Z,23.77
2017-11-15T08:02:00.361Z,24.80
2017-11-15T08:04:27.950Z,22.20
2017-11-15T08:06:55.503Z,20.00
2017-11-15T08:09:23.112Z,24.57
2017-11-15T08:11:51.460Z,21.10
2017-11-15T08:14:19.022Z,21.10
2017-11-15T08:16:46.636Z,17.20
2017-11-15T08:19:14.215Z,19.10
2017-11-15T08:21:41.787Z,19.07
2017-11-15T08:24:09.365Z,16.93
2017-11-15T08:26:36.966Z,18.20
2017-11-15T08:29:04.560Z,16.77
2017-11-15T08:31:32.159Z,18.77
2017-11-15T08:34:00.475Z,21.03
2017-11-15T08:36:28.573Z,22.37
2017-11-15T08:38:56.120Z,18.93
2017-11-15T08:41:24.492Z,19.73
2017-11-15T08:43:52.843Z,16.33
2017-11-15T08:46:20.435Z,18.47
2017-11-15T08:48:48.027Z,18.97
2017-11-15T08:51:15.603Z,16.60
2017-11-15T08:53:43.214Z,18.13
2017-11-15T08:56:10.803Z,17.37
2017-11-15T08:58:38.414Z,21.73
2017-11-15T09:01:06.009Z,19.70
2017-11-15T09:03:33.600Z,17.07
2017-11-15T09:06:01.190Z,20.93
2017-11-15T09:08:28.810Z,21.23
2017-11-15T09:10:56.459Z,22.90
2017-11-15T09:13:24.031Z,18.70
2017-11-15T09:15:51.635Z,23.60
2017-11-15T09:18:20.076Z,20.00
2017-11-15T09:20:47.771Z,20.87
2017-11-15T09:23:16.123Z,21.93
2017-11-15T09:25:43.706Z,20.40
2017-11-15T09:28:12.061Z,20.80
2017-11-15T09:30:39.628Z,22.20
2017-11-15T09:33:07.223Z,22.10
2017-11-15T09:35:34.815Z,17.87
2017-11-15T09:38:02.394Z,21.67
2017-11-15T09:40:30.800Z,18.97
2017-11-15T09:42:58.447Z,18.33
2017-11-15T09:45:26.231Z,21.93
2017-11-15T09:47:53.807Z,23.17
2017-11-15T09:50:25.629Z,17.93
2017-11-15T09:52:53.306Z,22.40
2017-11-15T09:55:20.878Z,19.50
2017-11-15T09:57:49.247Z,16.10
2017-11-15T10:00:16.818Z,16.97
2017-11-15T10:02:45.163Z,19.33
2017-11-15T10:05:13.660Z,19.73
2017-11-15T10:07:41.340Z,18.17
2017-11-15T10:10:08.907Z,21.63
2017-11-15T10:12:37.258Z,18.07
2017-11-15T10:15:04.852Z,18.07
2017-11-15T10:17:33.297Z,17.47
2017-11-15T10:20:00.876Z,17.67
2017-11-15T10:22:28.459Z,19.93
2017-11-15T10:24:56.804Z,17.53
2017-11-15T10:27:24.499Z,15.40
2017-11-15T10:29:52.856Z,17.37
2017-11-15T10:32:20.410Z,16.80
2017-11-15T10:34:48.147Z,14.13
2017-11-15T10:37:15.715Z,18.37
2017-11-15T10:39:43.288Z,15.80
2017-11-15T10:42:10.871Z,14.97
2017-11-15T10:44:38.423Z,17.50
2017-11-15T10:47:06.004Z,18.60
2017-11-15T10:49:34.359Z,21.03
2017-11-15T10:52:02.006Z,18.33
2017-11-15T10:54:31.310Z,17.67
2017-11-15T10:56:59.691Z,17.17
2017-11-15T10:59:27.267Z,17.90
2017-11-15T11:01:54.823Z,16.00
2017-11-15T11:04:22.375Z,15.10
2017-11-15T11:06:49.980Z,12.33
2017-11-15T11:09:18.315Z,13.87
2017-11-15T11:11:45.971Z,15.10
2017-11-15T11:14:13.560Z,16.77
2017-11-15T11:16:41.138Z,12.10
2017-11-15T11:19:09.467Z,13.70
2017-11-15T11:21:37.074Z,16.30
2017-11-15T11:24:05.453Z,13.83
2017-11-15T11:26:33.791Z,15.67
2017-11-15T11:29:01.369Z,15.27
2017-11-15T11:31:28.944Z,15.47
2017-11-15T11:33:56.528Z,13.90
2017-11-15T11:36:24.896Z,12.07
2017-11-15T11:38:53.277Z,13.17
2017-11-15T11:41:20.899Z,13.77
2017-11-15T11:43:48.487Z,11.53
2017-11-15T11:46:16.085Z,17.30
2017-11-15T11:48:43.744Z,15.30
2017-11-15T11:51:11.352Z,13.30
2017-11-15T11:53:38.928Z,13.27
2017-11-15T11:56:06.899Z,13.37
2017-11-15T11:58:34.475Z,9.87
2017-11-15T12:01:02.887Z,14.80
2017-11-15T12:03:30.472Z,15.23
2017-11-15T12:05:58.088Z,11.30
2017-11-15T12:08:26.455Z,10.33
2017-11-15T12:10:54.796Z,12.53
2017-11-15T12:13:22.396Z,11.53
2017-11-15T12:15:50.772Z,13.43
2017-11-15T12:18:19.134Z,11.37
2017-11-15T12:20:46.713Z,15.10
2017-11-15T12:23:14.279Z,8.87
2017-11-15T12:25:42.645Z,9.37
2017-11-15T12:28:10.222Z,9.03
2017-11-15T12:30:38.572Z,11.47
2017-11-15T12:33:06.939Z,12.70
2017-11-15T12:35:34.531Z,10.63
2017-11-15T12:38:02.113Z,9.40
2017-11-15T12:40:29.749Z,9.30
2017-11-15T12:42:57.343Z,10.67
2017-11-15T12:45:24.927Z,10.20
2017-11-15T12:47:52.536Z,13.47
2017-11-15T12:50:20.189Z,12.57
2017-11-15T12:52:47.773Z,9.10
2017-11-15T12:55:16.143Z,10.50
2017-11-15T12:57:43.794Z,11.73
2017-11-15T13:00:11.363Z,10.33
2017-11-15T13:02:38.958Z,8.67
2017-11-15T13:05:06.551Z,11.70
2017-11-15T13:07:34.123Z,10.83
2017-11-15T13:10:01.696Z,10.83
2017-11-15T13:12:29.271Z,8.50
2017-11-15T13:14:57.735Z,12.67
2017-11-15T13:17:25.312Z,8.73
2017-11-15T13:19:53.660Z,9.40
2017-11-15T13:22:21.243Z,8.83
2017-11-15T13:24:48.834Z,9.23
2017-11-15T13:27:17.178Z,9.20
2017-11-15T13:29:44.710Z,12.50
2017-11-15T13:32:12.275Z,12.10
2017-11-15T13:34:39.919Z,11.10
2017-11-15T13:37:07.786Z,9.17
2017-11-15T13:39:35.388Z,11.53
2017-11-15T13:42:02.974Z,10.97
2017-11-15T13:44:31.306Z,8.60
2017-11-15T13:46:58.952Z,9.67
2017-11-15T13:49:26.621Z,20.70
2017-11-15T13:51:54.240Z,10.23
2017-11-15T13:54:21.878Z,8.30
2017-11-15T13:56:49.476Z,14.53
2017-11-15T13:59:17.058Z,9.10
2017-11-15T14:01:44.660Z,11.97
2017-11-15T14:04:12.235Z,11.30
2017-11-15T14:06:39.829Z,7.90
2017-11-15T14:09:07.490Z,11.30
2017-11-15T14:11:35.815Z,9.73
2017-11-15T14:14:04.291Z,9.40
2017-11-15T14:16:31.882Z,12.10
2017-11-15T14:19:00.254Z,9.13
2017-11-15T14:21:27.873Z,10.50
2017-11-15T14:23:55.530Z,11.87
2017-11-15T14:26:23.133Z,38.23
2017-11-15T14:28:50.688Z,21.13
2017-11-15T14:31:18.292Z,10.30
2017-11-15T14:33:45.924Z,11.20
2017-11-15T14:36:14.183Z,9.93
2017-11-15T14:38:41.779Z,10.90
2017-11-15T14:41:10.143Z,10.83
2017-11-15T14:43:37.718Z,11.37
2017-11-15T14:46:05.317Z,9.67
2017-11-15T14:48:32.934Z,13.17
2017-11-15T14:51:01.304Z,10.20
2017-11-15T14:53:28.899Z,11.07
2017-11-15T14:55:56.460Z,9.13
2017-11-15T14:58:24.062Z,8.80
2017-11-15T15:00:51.776Z,10.73
2017-11-15T15:03:20.217Z,9.90
2017-11-15T15:05:48.081Z,8.93
2017-11-15T15:08:16.131Z,8.50
2017-11-15T15:10:43.780Z,9.60
2017-11-15T15:13:12.133Z,8.13
2017-11-15T15:15:40.529Z,7.93
2017-11-15T15:18:12.517Z,9.20
2017-11-15T15:20:40.757Z,12.07
2017-11-15T15:23:08.403Z,9.93
2017-11-15T15:25:36.750Z,10.03
2017-11-15T15:28:04.410Z,12.23
2017-11-15T15:30:31.992Z,6.80
2017-11-15T15:32:59.619Z,11.30
2017-11-15T15:35:27.204Z,13.40
2017-11-15T15:37:54.782Z,11.00
2017-11-15T15:40:22.366Z,9.30
2017-11-15T15:42:50.744Z,8.40
2017-11-15T15:45:19.097Z,10.90
2017-11-15T15:47:46.665Z,11.37
2017-11-15T15:50:14.267Z,10.67
2017-11-15T15:52:41.970Z,7.77
2017-11-15T15:55:09.588Z,12.23
2017-11-15T15:57:37.167Z,9.80
2017-11-15T16:00:04.806Z,9.30
2017-11-15T16:02:33.198Z,11.87
2017-11-15T16:05:02.277Z,8.27
2017-11-15T16:07:29.864Z,10.40
2017-11-15T16:09:57.438Z,9.17
2017-11-15T16:12:25.036Z,9.57
2017-11-15T16:14:52.657Z,12.20
2017-11-15T16:17:21.568Z,9.60
2017-11-15T16:19:49.151Z,11.97
2017-11-15T16:22:16.866Z,11.03
2017-11-15T16:24:44.451Z,11.00
2017-11-15T16:27:12.091Z,10.03
2017-11-15T16:29:39.740Z,9.23
2017-11-15T16:32:07.618Z,9.57
2017-11-15T16:34:35.323Z,8.43
2017-11-15T16:37:02.902Z,8.63
2017-11-15T16:39:31.265Z,8.70
2017-11-15T16:41:58.871Z,10.33
2017-11-15T16:44:26.519Z,12.10
2017-11-15T16:46:54.861Z,8.50
2017-11-15T16:49:22.414Z,8.23
2017-11-15T16:51:50.036Z,8.97
2017-11-15T16:54:17.957Z,8.93
2017-11-15T16:56:45.672Z,7.57
2017-11-15T16:59:13.251Z,8.43
2017-11-15T17:01:40.884Z,7.80
2017-11-15T17:04:08.448Z,9.30
2017-11-15T17:06:36.215Z,10.40
2017-11-15T17:09:04.391Z,8.20
2017-11-15T17:11:31.980Z,7.37
2017-11-15T17:13:59.601Z,10.57
2017-11-15T17:16:27.925Z,11.70
2017-11-15T17:18:55.610Z,9.00
2017-11-15T17:21:23.282Z,10.63
2017-11-15T17:23:50.872Z,9.67
2017-11-15T17:26:18.475Z,10.00
2017-11-15T17:28:46.083Z,11.07
2017-11-15T17:31:14.427Z,9.97
2017-11-15T17:33:41.991Z,8.17
2017-11-15T17:36:09.743Z,11.23
2017-11-15T17:38:37.349Z,10.87
2017-11-15T17:41:05.714Z,12.23
2017-11-15T17:43:33.330Z,8.40
2017-11-15T17:46:00.888Z,14.20
2017-11-15T17:48:28.460Z,10.07
2017-11-15T17:50:56.034Z,9.00
2017-11-15T17:53:23.670Z,10.97
2017-11-15T17:55:51.306Z,9.10
2017-11-15T17:58:18.915Z,8.93
2017-11-15T18:00:47.327Z,10.37
2017-11-15T18:03:14.940Z,11.03
2017-11-15T18:05:42.570Z,10.80
2017-11-15T18:08:10.214Z,10.90
2017-11-15T18:10:37.844Z,13.13
2017-11-15T18:13:05.494Z,12.23
2017-11-15T18:15:33.355Z,11.63
2017-11-15T18:18:00.947Z,12.17
2017-11-15T18:20:28.561Z,12.53
2017-11-15T18:22:56.142Z,12.53
2017-11-15T18:25:23.786Z,12.17
2017-11-15T18:27:51.391Z,11.40
2017-11-15T18:30:19.013Z,11.60
2017-11-15T18:32:48.052Z,11.30
2017-11-15T18:35:15.640Z,13.53
2017-11-15T18:37:44.095Z,13.97
2017-11-15T18:40:11.712Z,14.93
2017-11-15T18:42:39.450Z,10.60
2017-11-15T18:45:07.859Z,12.00
2017-11-15T18:47:35.999Z,11.33
2017-11-15T18:50:04.340Z,13.30
2017-11-15T18:52:31.976Z,13.17
2017-11-15T18:54:59.618Z,15.37
2017-11-15T18:57:27.270Z,14.17
2017-11-15T18:59:55.717Z,15.20
2017-11-15T19:02:26.500Z,14.63
2017-11-15T19:04:55.579Z,12.53
2017-11-15T19:07:24.257Z,14.13
2017-11-15T19:09:55.218Z,13.50
2017-11-15T19:12:22.872Z,12.97
2017-11-15T19:14:51.469Z,15.43
2017-11-15T19:17:21.768Z,15.30
2017-11-15T19:19:49.422Z,14.87
2017-11-15T19:22:17.075Z,14.43
2017-11-15T19:24:44.727Z,15.43
2017-11-15T19:27:12.364Z,14.80
2017-11-15T19:29:39.960Z,19.20
2017-11-15T19:32:07.554Z,17.93
2017-11-15T19:34:36.112Z,17.43
2017-11-15T19:37:04.873Z,20.57
2017-11-15T19:39:32.763Z,16.90
2017-11-15T19:42:00.714Z,13.87
2017-11-15T19:44:28.318Z,17.13
2017-11-15T19:46:55.977Z,18.73
2017-11-15T19:49:24.345Z,17.20
2017-11-15T19:51:52.738Z,19.40
2017-11-15T19:54:21.096Z,18.27
2017-11-15T19:56:48.730Z,18.70
2017-11-15T19:59:16.692Z,13.27
2017-11-15T20:01:44.394Z,16.70
2017-11-15T20:04:12.025Z,15.07
2017-11-15T20:06:39.599Z,13.47
2017-11-15T20:09:07.297Z,12.50
2017-11-15T20:11:35.606Z,15.17
2017-11-15T20:14:03.287Z,15.63
2017-11-15T20:16:30.871Z,16.23
2017-11-15T20:18:58.490Z,15.27
2017-11-15T20:21:26.980Z,14.40
2017-11-15T20:23:54.625Z,16.40
2017-11-15T20:26:23.119Z,14.27
2017-11-15T20:28:50.743Z,14.60
2017-11-15T20:31:18.401Z,17.80
2017-11-15T20:33:45.981Z,15.53
2017-11-15T20:36:13.618Z,17.63
2017-11-15T20:38:41.298Z,16.50
2017-11-15T20:41:08.941Z,17.47
2017-11-15T20:43:36.677Z,17.40
2017-11-15T20:46:04.268Z,15.67
2017-11-15T20:48:31.936Z,25.63
2017-11-15T20:50:59.545Z,20.30
2017-11-15T20:53:27.947Z,18.30
2017-11-15T20:55:55.629Z,16.33
2017-11-15T20:58:23.218Z,16.57
2017-11-15T21:00:50.814Z,18.20
2017-11-15T21:03:18.437Z,18.93
2017-11-15T21:05:46.141Z,16.23
2017-11-15T21:17:58.824Z,17.20
2017-11-15T21:20:26.471Z,20.37
2017-11-15T21:22:54.905Z,20.57
2017-11-15T21:25:22.570Z,22.33
2017-11-15T21:27:50.440Z,18.30
2017-11-15T21:40:03.048Z,17.57
2017-11-15T21:42:31.400Z,20.67
2017-11-15T21:44:59.018Z,22.03
2017-11-15T21:47:26.589Z,15.33
2017-11-15T21:49:54.198Z,19.53
2017-11-15T21:52:21.770Z,16.43
2017-11-15T21:54:49.394Z,17.80
2017-11-15T21:57:17.046Z,17.97
2017-11-15T21:59:44.655Z,16.17
2017-11-15T22:02:12.249Z,17.07
2017-11-15T22:04:39.829Z,20.20
2017-11-15T22:07:07.425Z,20.00
2017-11-15T22:09:35.121Z,19.53
2017-11-15T22:12:02.750Z,18.60
2017-11-15T22:14:30.341Z,24.10
2017-11-15T22:16:58.725Z,19.90
2017-11-15T22:19:27.078Z,22.23
2017-11-15T22:21:54.703Z,23.27
2017-11-15T22:24:22.294Z,20.40
2017-11-15T22:26:50.089Z,18.17
2017-11-15T22:29:17.691Z,20.63
2017-11-15T22:31:45.247Z,18.20
2017-11-15T22:34:12.864Z,21.80
2017-11-15T22:36:41.244Z,20.10
2017-11-15T22:39:09.631Z,20.50
2017-11-15T22:41:37.970Z,19.67
2017-11-15T22:44:05.614Z,19.60
2017-11-15T22:46:33.184Z,16.73
2017-11-15T22:49:00.775Z,19.77
2017-11-15T22:51:28.352Z,24.17
2017-11-15T22:53:56.667Z,21.37
2017-11-15T22:56:24.513Z,22.27
2017-11-15T22:58:52.078Z,17.57
2017-11-15T23:01:19.648Z,18.30
2017-11-15T23:03:47.212Z,19.80
2017-11-15T23:06:14.810Z,17.90
2017-11-15T23:08:42.444Z,23.60
2017-11-15T23:11:10.016Z,21.97
2017-11-15T23:13:37.603Z,32.50
2017-11-15T23:16:05.173Z,28.97
2017-11-15T23:18:32.781Z,22.90
2017-11-15T23:21:00.420Z,27.37
2017-11-15T23:23:28.810Z,29.77
2017-11-15T23:25:56.425Z,29.17
2017-11-15T23:28:24.012Z,24.20
2017-11-15T23:30:52.363Z,29.53
2017-11-15T23:33:19.935Z,26.73
2017-11-15T23:35:47.583Z,25.00
2017-11-15T23:38:15.340Z,27.67
2017-11-15T23:40:42.955Z,26.40
2017-11-15T23:43:10.539Z,21.10
2017-11-15T23:45:38.143Z,23.13
2017-11-15T23:48:05.773Z,22.40
2017-11-15T23:50:33.342Z,27.93
2017-11-15T23:53:00.971Z,25.53
2017-11-15T23:55:28.574Z,21.83
2017-11-15T23:57:56.178Z,26.17
